Time;durP1;ratioP1;P1;durP2;ratioP2;P2;SDS_P1;SDS_P2;PMS_P1;PMS_P2;Temp;Humidity;BMP_temperature;BMP_pressure;BME280_temperature;BME280_humidity;BME280_pressure;Samples;Min_cycle;Max_cycle;Signal;HPM_P1;HPM_P2
2022/11/20 00:01:34;;;;;;;90.50;47.80;;;;;;;-4.24;73.24;98753.44;103661;1297;97949;-69
2022/11/20 00:04:03;;;;;;;96.30;48.70;;;;;;;-4.22;73.19;98745.44;103667;1299;111759;-68
2022/11/20 00:06:30;;;;;;;92.30;45.70;;;;;;;-4.21;73.32;98752.00;103673;1288;97832;-69
2022/11/20 00:09:01;;;;;;;93.70;47.50;;;;;;;-4.20;73.40;98747.15;103611;1297;108025;-69
2022/11/20 00:11:31;;;;;;;92.50;44.80;;;;;;;-4.21;73.27;98749.59;103597;1297;97960;-69
2022/11/20 00:14:02;;;;;;;86.20;43.60;;;;;;;-4.22;73.24;98754.80;103535;1292;97871;-69
2022/11/20 00:16:32;;;;;;;82.60;40.10;;;;;;;-4.24;73.35;98758.46;103627;1295;110941;-68
2022/11/20 00:19:02;;;;;;;79.40;39.60;;;;;;;-4.28;73.30;98752.64;103526;1298;98002;-67
2022/11/20 00:21:32;;;;;;;75.80;37.10;;;;;;;-4.30;73.25;98749.75;103576;1297;108138;-68
2022/11/20 00:24:00;;;;;;;82.60;40.30;;;;;;;-4.30;73.45;98748.02;103593;1295;97997;-70
2022/11/20 00:26:30;;;;;;;79.40;38.20;;;;;;;-4.32;73.35;98746.84;103671;1291;97952;-68
2022/11/20 00:29:00;;;;;;;85.90;40.60;;;;;;;-4.34;73.51;98744.46;103661;1296;111280;-69
2022/11/20 00:31:30;;;;;;;82.70;40.20;;;;;;;-4.37;73.34;98739.65;103687;1297;97855;-68
2022/11/20 00:33:58;;;;;;;81.30;40.70;;;;;;;-4.37;73.16;98737.92;103613;1290;107823;-69
2022/11/20 00:36:32;;;;;;;81.20;42.20;;;;;;;-4.36;73.52;98741.90;103651;1299;98025;-73
2022/11/20 00:39:00;;;;;;;75.70;37.90;;;;;;;-4.34;73.34;98749.12;103728;1298;97992;-71
2022/11/20 00:41:29;;;;;;;66.60;35.30;;;;;;;-4.33;73.26;98751.37;103701;1299;110888;-69
2022/11/20 00:43:58;;;;;;;69.30;34.60;;;;;;;-4.33;73.25;98753.80;103653;1290;98628;-70
2022/11/20 00:46:28;;;;;;;70.40;33.40;;;;;;;-4.33;73.30;98750.84;103592;1295;106543;-69
2022/11/20 00:48:57;;;;;;;68.10;35.10;;;;;;;-4.34;73.57;98745.14;103664;1299;97821;-69
2022/11/20 00:51:28;;;;;;;68.90;35.70;;;;;;;-4.34;73.58;98741.86;103639;1299;97855;-69
2022/11/20 00:53:57;;;;;;;71.30;35.30;;;;;;;-4.33;73.45;98738.73;103660;1299;110057;-68
2022/11/20 00:56:28;;;;;;;69.70;35.30;;;;;;;-4.33;73.33;98738.20;103680;1289;95151;-68
2022/11/20 00:59:00;;;;;;;73.60;37.60;;;;;;;-4.33;73.71;98731.45;103680;1291;108174;-68
2022/11/20 01:01:29;;;;;;;69.90;35.40;;;;;;;-4.32;73.56;98728.49;103691;1299;97868;-68
2022/11/20 01:04:00;;;;;;;74.60;36.10;;;;;;;-4.29;73.49;98736.23;103669;1297;98005;-69
2022/11/20 01:06:34;;;;;;;75.80;37.10;;;;;;;-4.28;73.64;98730.66;103713;1299;111862;-68
2022/11/20 01:09:08;;;;;;;69.10;35.30;;;;;;;-4.25;73.44;98727.67;103641;1291;97862;-70
2022/11/20 01:11:39;;;;;;;69.10;34.80;;;;;;;-4.22;73.56;98725.52;103700;1291;107373;-69
2022/11/20 01:14:13;;;;;;;63.60;31.00;;;;;;;-4.20;73.70;98724.28;103652;1298;97930;-69
2022/11/20 01:16:52;;;;;;;62.80;30.60;;;;;;;-4.19;73.78;98723.23;103643;1296;97819;-69
2022/11/20 01:19:22;;;;;;;65.90;32.20;;;;;;;-4.21;73.72;98731.23;103682;1291;110376;-70
2022/11/20 01:21:53;;;;;;;65.10;31.90;;;;;;;-4.22;73.51;98741.45;103632;1297;97985;-68
2022/11/20 01:24:23;;;;;;;69.90;35.60;;;;;;;-4.20;73.54;98750.44;103665;1290;107848;-71
2022/11/20 01:26:52;;;;;;;67.40;34.20;;;;;;;-4.20;73.52;98750.27;103613;1296;96309;-70
2022/11/20 01:29:24;;;;;;;68.30;33.80;;;;;;;-4.23;73.42;98749.80;103679;1294;97896;-69
2022/11/20 01:31:52;;;;;;;67.00;33.10;;;;;;;-4.23;73.64;98743.39;103685;1298;111025;-69
2022/11/20 01:34:22;;;;;;;67.40;35.50;;;;;;;-4.19;73.66;98736.73;103674;1289;95135;-69
2022/11/20 01:36:52;;;;;;;63.60;33.10;;;;;;;-4.15;73.64;98733.04;103578;1292;107648;-69
2022/11/20 01:39:24;;;;;;;65.80;31.00;;;;;;;-4.12;73.60;98735.41;103492;1295;99019;-71
2022/11/20 01:44:54;;;;;;;63.60;29.80;;;;;;;-4.13;73.81;98733.02;103579;1299;111811;-69
2022/11/20 01:47:35;;;;;;;57.20;28.90;;;;;;;-4.15;73.87;98730.44;103625;1299;97929;-68
2022/11/20 01:50:28;;;;;;;58.00;27.30;;;;;;;-4.17;73.74;98736.52;103582;1286;108098;-70
2022/11/20 01:53:09;;;;;;;44.80;22.80;;;;;;;-4.21;73.74;98741.45;103673;1290;97961;-70
2022/11/20 01:55:50;;;;;;;60.50;28.90;;;;;;;-4.26;73.60;98740.16;103680;1289;97863;-69
2022/11/20 01:58:25;;;;;;;62.80;31.60;;;;;;;-4.26;73.78;98731.84;103676;1282;111018;-70
2022/11/20 02:00:55;;;;;;;;;;;;;;;-4.24;73.81;98728.85;103679;1291;97880;-70
2022/11/20 02:03:25;;;;;;;60.10;30.60;;;;;;;-4.23;74.00;98727.80;103667;1292;108096;-69
2022/11/20 02:06:24;;;;;;;60.40;30.50;;;;;;;-4.21;73.61;98727.58;103612;1291;95156;-70
2022/11/20 02:08:55;;;;;;;57.20;28.80;;;;;;;-4.19;73.76;98724.98;103590;1299;97867;-69
2022/11/20 02:11:23;;;;;;;62.10;29.40;;;;;;;-4.18;74.06;98717.34;103548;1295;111648;-70
2022/11/20 02:13:51;;;;;;;57.20;27.00;;;;;;;-4.18;74.22;98721.83;103625;1298;97919;-69
2022/11/20 02:16:24;;;;;;;57.50;28.70;;;;;;;-4.19;74.05;98716.14;103560;1290;107575;-68
2022/11/20 02:18:56;;;;;;;62.30;29.90;;;;;;;-4.19;73.98;98713.89;103671;1295;97872;-68
2022/11/20 02:21:30;;;;;;;58.40;29.90;;;;;;;-4.16;73.97;98709.33;103694;1292;98012;-69
2022/11/20 02:24:10;;;;;;;72.00;35.80;;;;;;;-4.14;73.93;98704.09;103646;1299;110865;-68
2022/11/20 02:26:52;;;;;;;92.40;45.40;;;;;;;-4.11;73.95;98700.23;103669;1297;98007;-68
2022/11/20 02:29:26;;;;;;;100.70;50.20;;;;;;;-4.09;73.97;98699.86;103608;1295;106320;-69
2022/11/20 02:31:56;;;;;;;103.20;50.20;;;;;;;-4.09;73.85;98699.50;103568;1298;98059;-69
2022/11/20 02:34:23;;;;;;;116.10;55.60;;;;;;;-4.11;73.65;98697.64;103767;1296;96412;-69
2022/11/20 02:36:53;;;;;;;105.80;54.90;;;;;;;-4.20;73.39;98695.55;103636;1290;111167;-72
2022/11/20 02:39:26;;;;;;;116.60;56.90;;;;;;;-4.28;73.36;98684.96;103636;1297;97830;-70
2022/11/20 02:41:56;;;;;;;103.60;53.70;;;;;;;-4.27;73.43;98684.95;103603;1290;106638;-72
2022/11/20 02:44:25;;;;;;;95.10;49.30;;;;;;;-4.26;73.47;98683.89;103578;1298;97770;-69
2022/11/20 02:46:59;;;;;;;94.60;48.50;;;;;;;-4.25;73.70;98688.70;103436;1291;97959;-68
2022/11/20 02:49:26;;;;;;;97.60;49.20;;;;;;;-4.24;73.73;98694.75;103627;1292;109852;-68
2022/11/20 02:51:54;;;;;;;99.20;49.60;;;;;;;-4.23;73.56;98699.41;103648;1297;97985;-70
2022/11/20 02:54:24;;;;;;;104.10;50.00;;;;;;;-4.22;73.87;98702.49;103575;1303;107363;-70
2022/11/20 02:56:52;;;;;;;95.40;47.40;;;;;;;-4.21;73.75;98698.69;103645;1289;97874;-70
2022/11/20 02:59:22;;;;;;;100.90;51.10;;;;;;;-4.22;73.70;98692.64;103389;1293;97753;-68
2022/11/20 03:01:51;;;;;;;104.40;51.70;;;;;;;-4.24;73.51;98698.56;103429;1294;111175;-69
2022/11/20 03:04:21;;;;;;;104.60;51.00;;;;;;;-4.28;73.54;98700.20;103623;1279;95694;-69
2022/11/20 03:06:49;;;;;;;97.80;48.10;;;;;;;-4.34;73.58;98703.08;103628;1286;108105;-68
2022/11/20 03:09:17;;;;;;;92.60;46.10;;;;;;;-4.37;73.82;98707.45;103569;1297;97964;-67
2022/11/20 03:11:47;;;;;;;99.30;50.50;;;;;;;-4.38;73.80;98704.02;103561;1294;95205;-66
2022/11/20 03:14:16;;;;;;;96.40;44.80;;;;;;;-4.36;73.88;98705.53;103634;1290;110885;-68
2022/11/20 03:16:44;;;;;;;96.40;47.20;;;;;;;-4.35;73.88;98702.56;103592;1292;97078;-69
2022/11/20 03:19:14;;;;;;;87.30;44.50;;;;;;;-4.36;73.61;98692.71;103602;1290;107244;-69
2022/11/20 03:21:41;;;;;;;94.50;45.60;;;;;;;-4.39;73.61;98688.79;103612;1289;97877;-69
2022/11/20 03:24:09;;;;;;;92.20;46.10;;;;;;;-4.40;73.66;98685.52;103536;1297;98008;-69
2022/11/20 03:26:40;;;;;;;97.70;48.80;;;;;;;-4.40;73.79;98688.63;103569;1282;111843;-69
2022/11/20 03:29:08;;;;;;;90.20;45.20;;;;;;;-4.38;73.68;98689.98;103589;1291;98422;-68
2022/11/20 03:31:40;;;;;;;87.80;42.50;;;;;;;-4.37;73.76;98688.23;103566;1290;106629;-72
2022/11/20 03:34:11;;;;;;;89.90;45.10;;;;;;;-4.38;73.75;98686.70;103634;1282;97861;-70
2022/11/20 03:36:41;;;;;;;96.20;45.50;;;;;;;-4.38;73.88;98686.20;103577;1282;97854;-69
2022/11/20 03:39:11;;;;;;;86.80;43.60;;;;;;;-4.41;73.57;98680.89;103583;1288;112310;-69
2022/11/20 03:41:42;;;;;;;81.80;41.60;;;;;;;-4.40;73.93;98671.85;103617;1295;97699;-69
2022/11/20 03:44:12;;;;;;;85.40;43.90;;;;;;;-4.38;74.00;98666.80;103623;1290;107566;-69
2022/11/20 03:46:40;;;;;;;83.50;42.50;;;;;;;-4.37;73.76;98664.88;103685;1292;97959;-69
2022/11/20 03:49:08;;;;;;;81.70;41.70;;;;;;;-4.36;73.70;98658.44;103665;1296;98416;-69
2022/11/20 03:51:36;;;;;;;79.00;39.30;;;;;;;-4.36;73.68;98657.05;103633;1299;110873;-69
2022/11/20 03:54:08;;;;;;;81.30;41.30;;;;;;;-4.38;73.66;98652.42;103616;1297;99642;-69
2022/11/20 03:56:39;;;;;;;76.40;36.60;;;;;;;-4.39;73.64;98648.82;103581;1299;107396;-67
2022/11/20 03:59:11;;;;;;;75.90;39.80;;;;;;;-4.40;73.71;98651.60;103566;1290;97928;-70
2022/11/20 04:01:40;;;;;;;73.90;33.80;;;;;;;-4.42;73.72;98652.67;103639;1296;98117;-68
2022/11/20 04:04:14;;;;;;;77.30;36.20;;;;;;;-4.45;73.60;98650.83;103609;1299;111299;-69
2022/11/20 04:06:42;;;;;;;68.70;36.10;;;;;;;-4.48;73.68;98648.61;103461;1296;97963;-68
2022/11/20 04:09:11;;;;;;;81.60;41.40;;;;;;;-4.48;73.96;98650.02;103636;1282;108024;-70
2022/11/20 04:11:41;;;;;;;84.80;42.80;;;;;;;-4.53;73.56;98643.88;103653;1289;97869;-69
2022/11/20 04:14:17;;;;;;;84.40;44.20;;;;;;;-4.58;73.68;98634.43;103651;1289;97826;-68
2022/11/20 04:16:45;;;;;;;105.40;50.00;;;;;;;-4.59;73.59;98635.16;103582;1289;112069;-69
2022/11/20 04:19:16;;;;;;;101.80;50.70;;;;;;;-4.61;73.46;98637.61;103702;1299;97931;-69
2022/11/20 04:21:44;;;;;;;120.80;55.20;;;;;;;-4.64;73.58;98643.37;103566;1297;108084;-68
2022/11/20 04:24:12;;;;;;;126.10;57.00;;;;;;;-4.68;73.50;98648.11;103613;1291;98503;-68
2022/11/20 04:26:42;;;;;;;115.40;58.10;;;;;;;-4.68;73.65;98648.80;103613;1290;97877;-69
2022/11/20 04:29:12;;;;;;;113.40;56.30;;;;;;;-4.68;73.47;98651.06;103527;1295;111123;-68
2022/11/20 04:31:40;;;;;;;109.50;54.20;;;;;;;-4.70;73.53;98652.30;103651;1291;96934;-68
2022/11/20 04:34:13;;;;;;;105.40;51.20;;;;;;;-4.71;73.71;98657.52;103652;1291;108573;-69
2022/11/20 04:36:40;;;;;;;105.80;51.20;;;;;;;-4.71;73.79;98655.80;103602;1292;97861;-68
2022/11/20 04:39:17;;;;;;;105.50;51.10;;;;;;;-4.73;73.83;98647.34;103665;1291;97858;-69
2022/11/20 04:42:27;;;;;;;110.90;52.00;;;;;;;-4.73;73.74;98649.77;103664;1283;111097;-67
2022/11/20 04:44:36;;;;;;;110.10;52.50;;;;;;;-4.74;73.68;98641.30;103601;1298;113679;-70
2022/11/20 04:47:04;;;;;;;104.50;51.80;;;;;;;-4.75;73.85;98637.01;103606;1299;107460;-69
2022/11/20 04:49:32;;;;;;;114.80;51.60;;;;;;;-4.75;73.56;98637.88;103417;1297;95314;-69
2022/11/20 04:52:02;;;;;;;146.30;63.70;;;;;;;-4.76;73.72;98639.44;103654;1289;97876;-68
2022/11/20 04:54:30;;;;;;;127.50;61.50;;;;;;;-4.79;73.50;98638.98;103641;1291;109775;-68
2022/11/20 04:56:57;;;;;;;131.20;61.70;;;;;;;-4.83;73.88;98639.20;103644;1299;97875;-67
2022/11/20 04:59:26;;;;;;;117.00;54.20;;;;;;;-4.84;73.82;98635.41;103643;1290;108698;-68
2022/11/20 05:01:55;;;;;;;122.70;56.90;;;;;;;-4.85;73.71;98636.12;103617;1299;98437;-69
2022/11/20 05:04:25;;;;;;;118.30;56.90;;;;;;;-4.87;73.74;98645.49;103632;1289;97884;-68
2022/11/20 05:06:52;;;;;;;107.50;51.30;;;;;;;-4.88;73.83;98651.39;103630;1291;111710;-68
2022/11/20 05:09:20;;;;;;;103.00;49.20;;;;;;;-4.89;73.93;98649.35;103596;1290;97951;-68
2022/11/20 05:11:49;;;;;;;91.30;42.80;;;;;;;-4.90;73.76;98652.66;103586;1299;108150;-69
2022/11/20 05:14:19;;;;;;;89.40;41.40;;;;;;;-4.90;73.79;98659.91;103652;1298;97939;-67
2022/11/20 05:16:48;;;;;;;96.10;46.50;;;;;;;-4.90;73.80;98659.73;103622;1295;95150;-67
2022/11/20 05:19:16;;;;;;;88.10;41.70;;;;;;;-4.89;73.70;98663.70;103600;1292;111757;-70
2022/11/20 05:21:46;;;;;;;84.20;43.00;;;;;;;-4.89;73.85;98663.52;103583;1289;97829;-69
2022/11/20 05:24:14;;;;;;;80.60;40.40;;;;;;;-4.88;73.93;98669.02;103652;1298;108073;-69
2022/11/20 05:26:43;;;;;;;71.90;36.10;;;;;;;-4.87;73.93;98672.64;103722;1297;98063;-68
2022/11/20 05:29:11;;;;;;;68.00;33.50;;;;;;;-4.87;73.99;98674.37;103700;1289;97937;-68
2022/11/20 05:31:42;;;;;;;64.70;30.50;;;;;;;-4.86;73.96;98668.48;103660;1295;111312;-68
2022/11/20 05:34:11;;;;;;;61.00;30.40;;;;;;;-4.85;74.11;98656.18;103665;1292;97855;-69
2022/11/20 05:36:39;;;;;;;66.10;30.70;;;;;;;-4.85;73.76;98650.48;103597;1295;107939;-69
2022/11/20 05:39:07;;;;;;;65.90;31.50;;;;;;;-4.85;73.67;98644.43;103586;1297;97976;-68
2022/11/20 05:41:38;;;;;;;63.50;31.20;;;;;;;-4.87;73.75;98650.86;103594;1292;97911;-68
2022/11/20 05:44:06;;;;;;;66.40;32.00;;;;;;;-4.89;73.79;98645.19;103595;1290;111760;-68
2022/11/20 05:46:33;;;;;;;65.60;32.70;;;;;;;-4.90;73.92;98633.46;103614;1291;97952;-69
2022/11/20 05:49:03;;;;;;;66.90;31.30;;;;;;;-4.92;73.63;98643.52;103566;1289;107871;-70
2022/11/20 05:51:31;;;;;;;66.60;32.80;;;;;;;-4.94;73.73;98646.13;103557;1291;95138;-69
2022/11/20 05:53:59;;;;;;;64.30;31.50;;;;;;;-4.95;73.89;98646.48;103554;1288;97869;-69
2022/11/20 05:56:27;;;;;;;62.40;30.10;;;;;;;-4.96;73.48;98646.16;103588;1297;110818;-69
2022/11/20 05:58:57;;;;;;;61.10;29.80;;;;;;;-4.97;73.67;98647.91;103598;1282;97988;-69
2022/11/20 06:01:26;;;;;;;58.70;27.20;;;;;;;-4.99;73.80;98642.23;103615;1295;108144;-69
2022/11/20 06:03:54;;;;;;;60.10;27.80;;;;;;;-5.02;73.62;98653.53;103573;1298;97845;-69
2022/11/20 06:06:25;;;;;;;55.80;26.70;;;;;;;-5.02;73.75;98657.67;103614;1283;98601;-68
2022/11/20 06:08:58;;;;;;;53.40;25.10;;;;;;;-5.02;73.73;98651.98;103629;1297;111792;-69
2022/11/20 06:11:27;;;;;;;57.10;28.60;;;;;;;-5.02;73.65;98658.37;103686;1289;95170;-69
2022/11/20 06:13:54;;;;;;;59.10;28.70;;;;;;;-5.01;73.77;98656.97;103602;1295;108069;-68
2022/11/20 06:16:22;;;;;;;64.80;30.30;;;;;;;-5.01;73.56;98646.77;103549;1286;97786;-71
2022/11/20 06:18:50;;;;;;;59.40;29.80;;;;;;;-5.03;73.79;98631.58;103620;1292;96146;-70
2022/11/20 06:21:23;;;;;;;75.50;38.90;;;;;;;-5.02;73.58;98628.96;103673;1307;111202;-69
2022/11/20 06:23:53;;;;;;;83.30;42.20;;;;;;;-5.03;73.78;98632.45;103556;1299;97874;-69
2022/11/20 06:26:27;;;;;;;83.50;39.70;;;;;;;-5.07;73.70;98632.67;103631;1292;107805;-70
2022/11/20 06:28:57;;;;;;;87.70;40.70;;;;;;;-5.08;73.50;98630.11;103620;1289;98008;-69
2022/11/20 06:31:28;;;;;;;83.00;40.40;;;;;;;-5.07;73.75;98643.91;103634;1291;97871;-69
2022/11/20 06:33:55;;;;;;;89.80;43.60;;;;;;;-5.06;73.79;98648.23;103597;1286;111696;-68
2022/11/20 06:36:23;;;;;;;95.60;49.10;;;;;;;-5.04;73.66;98649.93;103620;1290;97851;-70
2022/11/20 06:38:51;;;;;;;99.80;47.80;;;;;;;-5.01;73.64;98655.41;103642;1290;107355;-69
2022/11/20 06:41:23;;;;;;;100.50;49.70;;;;;;;-4.97;73.92;98662.11;103622;1291;97848;-69
2022/11/20 06:43:53;;;;;;;129.40;62.00;;;;;;;-4.92;73.81;98656.32;103626;1289;97905;-66
2022/11/20 06:46:23;;;;;;;101.20;49.30;;;;;;;-4.89;73.80;98658.50;103579;1292;110887;-71
2022/11/20 06:48:51;;;;;;;100.50;45.40;;;;;;;-4.85;73.88;98667.08;103621;1291;97872;-69
2022/11/20 06:51:19;;;;;;;97.00;46.10;;;;;;;-4.81;73.89;98660.96;103449;1294;106456;-70
2022/11/20 06:53:48;;;;;;;97.20;44.90;;;;;;;-4.77;74.05;98648.11;103596;1291;97898;-69
2022/11/20 06:56:16;;;;;;;88.60;41.20;;;;;;;-4.72;73.93;98642.33;103588;1291;97914;-68
2022/11/20 06:58:44;;;;;;;118.60;58.80;;;;;;;-4.66;73.78;98636.13;103608;1291;111784;-68
2022/11/20 07:01:15;;;;;;;131.00;64.80;;;;;;;-4.61;73.90;98624.30;103663;1297;97882;-69
2022/11/20 07:03:43;;;;;;;142.30;70.40;;;;;;;-4.59;73.86;98623.90;103556;1282;108088;-70
2022/11/20 07:06:15;;;;;;;152.90;73.80;;;;;;;-4.55;73.99;98623.84;103381;1291;97750;-69
2022/11/20 07:08:43;;;;;;;227.30;104.70;;;;;;;-4.49;74.06;98622.67;103601;1282;95199;-71
2022/11/20 07:11:13;;;;;;;289.60;128.40;;;;;;;-4.41;73.99;98626.84;103619;1292;112323;-70
2022/11/20 07:13:41;;;;;;;294.20;132.20;;;;;;;-4.33;74.08;98622.02;103624;1292;98466;-68
2022/11/20 07:16:09;;;;;;;201.00;98.70;;;;;;;-4.25;74.02;98624.64;103564;1291;108042;-71
2022/11/20 07:18:37;;;;;;;209.80;100.90;;;;;;;-4.20;74.02;98615.72;103574;1292;96247;-69
2022/11/20 07:21:09;;;;;;;222.30;103.30;;;;;;;-4.15;74.14;98612.85;103643;1297;97863;-69
2022/11/20 07:23:39;;;;;;;219.00;105.20;;;;;;;-4.07;74.20;98610.60;103612;1292;111121;-68
2022/11/20 07:26:11;;;;;;;228.30;109.00;;;;;;;-3.97;74.25;98616.48;103609;1297;97923;-69
2022/11/20 07:28:38;;;;;;;204.50;101.80;;;;;;;-3.88;74.42;98616.46;103471;1291;107981;-68
2022/11/20 07:31:07;;;;;;;211.40;105.90;;;;;;;-3.79;74.34;98613.66;103559;1292;97879;-68
2022/11/20 07:33:44;;;;;;;109.30;53.60;;;;;;;-3.70;74.51;98617.65;103583;1291;97828;-68
2022/11/20 07:36:12;;;;;;;96.30;49.90;;;;;;;-3.66;74.26;98622.56;103632;1282;110999;-69
2022/11/20 07:38:40;;;;;;;133.80;67.50;;;;;;;-3.60;74.30;98617.59;103517;1291;97971;-68
2022/11/20 07:41:07;;;;;;;121.70;62.30;;;;;;;-3.52;74.49;98616.20;103603;1290;108103;-69
2022/11/20 07:43:35;;;;;;;88.40;46.20;;;;;;;-3.47;74.44;98615.03;103501;1291;96233;-69
2022/11/20 07:46:09;;;;;;;83.90;42.80;;;;;;;-3.42;74.31;98615.08;103579;1299;97776;-66
2022/11/20 07:48:37;;;;;;;72.50;36.80;;;;;;;-3.36;74.43;98614.96;103571;1290;109573;-68
2022/11/20 07:51:08;;;;;;;87.40;43.80;;;;;;;-3.32;74.58;98605.15;103591;1299;97843;-68
2022/11/20 07:53:36;;;;;;;84.50;42.10;;;;;;;-3.24;74.49;98605.14;103574;1299;108710;-67
2022/11/20 07:56:07;;;;;;;95.70;48.90;;;;;;;-3.17;74.62;98601.84;103614;1291;97967;-69
2022/11/20 07:58:34;;;;;;;101.90;51.30;;;;;;;-3.10;74.61;98604.47;103612;1289;97872;-69
2022/11/20 08:01:05;;;;;;;132.10;66.80;;;;;;;-3.03;74.65;98604.10;103628;1296;111608;-70
2022/11/20 08:03:33;;;;;;;132.90;74.50;;;;;;;-2.95;74.65;98600.27;103577;1290;97879;-72
2022/11/20 08:06:01;;;;;;;142.30;73.20;;;;;;;-2.87;74.75;98597.82;103598;1291;107498;-72
2022/11/20 08:08:31;;;;;;;148.10;74.40;;;;;;;-2.80;74.69;98591.91;103597;1289;96197;-68
2022/11/20 08:16:35;;;;;;;118.90;64.00;;;;;;;-2.60;74.78;98580.09;103600;1289;97898;-70
2022/11/20 08:19:03;;;;;;;131.00;68.40;;;;;;;-2.53;74.67;98576.45;103433;1282;107550;-68
2022/11/20 08:21:31;;;;;;;119.40;66.80;;;;;;;-2.46;74.68;98577.30;103549;1291;97965;-69
2022/11/20 08:24:06;;;;;;;;;;;;;;;-2.40;74.73;98576.94;103548;1289;97884;-68
2022/11/20 08:26:38;;;;;;;114.80;59.80;;;;;;;-2.36;74.70;98576.50;103592;1291;110781;-69
2022/11/20 08:29:07;;;;;;;117.30;63.70;;;;;;;-2.31;74.77;98575.50;103563;1298;97858;-69
2022/11/20 08:31:35;;;;;;;116.50;62.60;;;;;;;-2.26;74.65;98573.61;103352;1299;108131;-68
2022/11/20 08:34:23;;;;;;;111.00;57.50;;;;;;;-2.22;74.86;98567.59;103544;1299;97732;-69
2022/11/20 08:36:51;;;;;;;110.40;57.90;;;;;;;-2.18;74.84;98563.83;103522;1282;95154;-69
2022/11/20 08:39:20;;;;;;;89.80;47.80;;;;;;;-2.14;74.83;98569.98;103501;1295;113902;-69
2022/11/20 08:41:50;;;;;;;72.10;39.80;;;;;;;-2.11;74.86;98570.42;103548;1291;96846;-68
2022/11/20 08:44:18;;;;;;;70.30;37.40;;;;;;;-2.13;74.61;98564.20;103583;1289;107923;-66
2022/11/20 08:46:46;;;;;;;67.60;37.00;;;;;;;-2.18;74.64;98570.60;103566;1291;97885;-66
2022/11/20 08:49:16;;;;;;;68.50;37.40;;;;;;;-2.22;74.71;98576.98;103594;1290;97895;-69
2022/11/20 08:51:45;;;;;;;70.90;38.80;;;;;;;-2.22;74.71;98575.77;103581;1291;111317;-69
2022/11/20 08:54:13;;;;;;;75.50;39.40;;;;;;;-2.14;74.81;98579.70;103581;1297;97872;-67
2022/11/20 08:56:42;;;;;;;66.60;35.30;;;;;;;-2.04;74.73;98582.88;103527;1299;107825;-67
2022/11/20 08:59:10;;;;;;;72.90;40.20;;;;;;;-1.97;74.72;98579.37;103510;1289;95539;-68
2022/11/20 09:01:58;;;;;;;75.40;42.10;;;;;;;-1.92;74.71;98574.22;103481;1290;97869;-67
2022/11/20 09:04:26;;;;;;;70.10;39.70;;;;;;;-1.88;74.87;98571.98;103553;1292;111586;-68
2022/11/20 09:06:55;;;;;;;77.00;42.90;;;;;;;-1.82;74.85;98573.37;103578;1289;97843;-68
2022/11/20 09:09:24;;;;;;;77.60;42.20;;;;;;;-1.78;74.84;98579.16;103485;1282;107979;-70
2022/11/20 09:11:52;;;;;;;79.10;43.50;;;;;;;-1.75;74.94;98571.77;103442;1284;98005;-68
2022/11/20 09:14:24;;;;;;;70.20;40.30;;;;;;;-1.76;74.86;98569.37;103506;1292;97964;-72
2022/11/20 09:16:58;;;;;;;73.70;41.00;;;;;;;-1.74;74.78;98576.27;103560;1298;110999;-69
2022/11/20 09:19:25;;;;;;;77.00;41.50;;;;;;;-1.69;74.82;98579.41;103591;1292;97966;-71
2022/11/20 09:22:04;;;;;;;72.80;41.00;;;;;;;-1.68;74.78;98575.39;103594;1289;107497;-68
2022/11/20 09:24:32;;;;;;;68.90;35.20;;;;;;;-1.67;74.95;98571.37;103551;1295;96256;-68
2022/11/20 09:27:05;;;;;;;64.60;38.10;;;;;;;-1.69;74.79;98574.55;103565;1297;97857;-68
2022/11/20 09:29:33;;;;;;;66.90;37.20;;;;;;;-1.73;74.65;98580.58;103537;1291;111967;-67
2022/11/20 09:32:03;;;;;;;71.70;40.80;;;;;;;-1.74;74.80;98582.36;103389;1284;95565;-69
2022/11/20 09:34:32;;;;;;;72.70;38.20;;;;;;;-1.71;75.01;98570.98;103535;1282;107916;-69
2022/11/20 09:37:00;;;;;;;71.20;38.90;;;;;;;-1.65;75.06;98562.43;103577;1291;97884;-69
2022/11/20 09:39:38;;;;;;;64.90;35.60;;;;;;;-1.56;75.03;98563.71;103572;1282;97954;-70
2022/11/20 09:42:40;;;;;;;59.90;34.40;;;;;;;-1.48;75.16;98568.68;103554;1298;110974;-69
2022/11/20 09:45:11;;;;;;;67.30;34.70;;;;;;;-1.37;75.10;98571.28;103532;1289;96341;-71
2022/11/20 09:48:10;;;;;;;65.40;35.70;;;;;;;-1.25;75.26;98566.92;103539;1299;107321;-70
2022/11/20 09:50:56;;;;;;;64.50;35.80;;;;;;;-1.15;75.06;98564.14;103546;1289;98208;-70
2022/11/20 09:53:41;;;;;;;79.80;42.50;;;;;;;-1.06;75.14;98579.88;103585;1299;97870;-69
2022/11/20 09:56:11;;;;;;;71.50;40.10;;;;;;;-0.97;75.03;98592.61;103479;1299;111119;-69
2022/11/20 09:58:51;;;;;;;67.30;38.90;;;;;;;-0.90;75.20;98592.73;103601;1285;97822;-69
2022/11/20 10:01:25;;;;;;;73.10;41.10;;;;;;;-0.81;75.19;98592.27;103564;1285;107375;-67
2022/11/20 10:04:21;;;;;;;68.20;38.50;;;;;;;-0.71;74.91;98588.27;103434;1282;95212;-68
2022/11/20 10:07:04;;;;;;;64.50;37.40;;;;;;;-0.56;75.10;98582.19;103559;1292;97883;-68
2022/11/20 10:09:55;;;;;;;67.00;39.80;;;;;;;-0.42;74.99;98577.54;103549;1291;110785;-67
2022/11/20 10:12:29;;;;;;;80.90;45.20;;;;;;;-0.33;75.15;98576.85;103485;1289;96389;-69
2022/11/20 10:14:57;;;;;;;;;;;;;;;-0.27;75.18;98565.31;103571;1297;108116;-69
2022/11/20 10:17:43;;;;;;;86.00;48.80;;;;;;;-0.29;75.19;98563.10;103605;1289;97872;-69
2022/11/20 10:20:42;;;;;;;82.40;46.00;;;;;;;-0.35;74.76;98562.98;103553;1299;98000;-69
2022/11/20 10:23:45;;;;;;;88.80;50.30;;;;;;;-0.34;74.98;98560.48;103549;1295;111411;-68
2022/11/20 10:26:30;;;;;;;92.50;51.90;;;;;;;-0.26;75.08;98559.52;103587;1289;97896;-70
2022/11/20 10:29:15;;;;;;;101.50;54.50;;;;;;;-0.20;74.99;98556.51;103540;1290;107491;-69
2022/11/20 10:31:53;;;;;;;98.40;54.90;;;;;;;-0.18;75.20;98550.35;103486;1291;98052;-69
2022/11/20 10:34:34;;;;;;;98.40;55.40;;;;;;;-0.19;74.82;98544.08;103637;1298;97998;-70
2022/11/20 10:37:18;;;;;;;95.70;51.70;;;;;;;-0.15;75.16;98543.94;103331;1285;111613;-69
2022/11/20 10:40:17;;;;;;;90.00;52.20;;;;;;;-0.07;75.19;98550.30;103517;1289;97895;-68
2022/11/20 10:42:55;;;;;;;80.30;46.80;;;;;;;-0.03;75.22;98551.01;103618;1289;107933;-69
2022/11/20 10:45:29;;;;;;;83.00;46.60;;;;;;;0.00;75.04;98548.09;103509;1299;96967;-70
2022/11/20 10:48:21;;;;;;;73.70;40.80;;;;;;;0.01;75.03;98550.17;103524;1295;95989;-71
2022/11/20 10:50:57;;;;;;;75.60;41.90;;;;;;;-0.05;74.79;98541.67;103494;1299;111056;-71
2022/11/20 10:53:52;;;;;;;79.80;45.10;;;;;;;-0.09;75.26;98540.59;103549;1291;97943;-72
2022/11/20 10:56:20;;;;;;;86.50;47.10;;;;;;;-0.09;75.21;98539.20;103486;1291;107511;-74
2022/11/20 10:59:28;;;;;;;86.90;47.30;;;;;;;-0.05;75.46;98533.48;103526;1289;97929;-70
2022/11/20 11:01:55;;;;;;;89.10;48.20;;;;;;;0.14;75.27;98529.29;103599;1291;96923;-69
2022/11/20 11:04:42;;;;;;;83.50;44.30;;;;;;;0.32;75.23;98514.78;103493;1289;111003;-69
2022/11/20 11:07:27;;;;;;;83.90;46.50;;;;;;;0.61;75.67;98503.84;103552;1285;97973;-68
2022/11/20 11:09:56;;;;;;;;;;;;;;;0.82;75.48;98508.77;103505;1299;107799;-68
2022/11/20 11:12:28;;;;;;;87.90;45.60;;;;;;;0.88;75.44;98507.64;103479;1289;97887;-69
2022/11/20 11:14:58;;;;;;;88.30;49.80;;;;;;;0.93;75.16;98511.28;103438;1292;97960;-70
2022/11/20 11:17:29;;;;;;;81.30;45.60;;;;;;;0.99;75.34;98505.42;103460;1299;111199;-68
2022/11/20 11:20:27;;;;;;;85.90;49.60;;;;;;;1.08;75.21;98499.48;103559;1285;96312;-70
2022/11/20 11:22:59;;;;;;;88.00;48.80;;;;;;;1.23;75.11;98493.95;103587;1291;107976;-70
2022/11/20 11:25:35;;;;;;;76.40;46.00;;;;;;;1.38;75.15;98487.71;103449;1285;98646;-69
2022/11/20 11:28:17;;;;;;;75.20;45.30;;;;;;;1.47;74.94;98487.27;103556;1290;97137;-68
2022/11/20 11:30:50;;;;;;;81.70;44.70;;;;;;;1.61;75.32;98493.16;103583;1291;112863;-68
2022/11/20 11:33:23;;;;;;;74.70;41.90;;;;;;;1.68;75.02;98497.89;103583;1291;97964;-69
2022/11/20 11:36:03;;;;;;;71.10;41.30;;;;;;;1.75;75.16;98501.41;103522;1292;107058;-69